EHVL  Vlieland Heliport

Add Bookmark

Vlieland, The Netherlands

Status
Operational
Latitude Longitude
53° 17' 47" N 5° 5' 8" E
53.296665 5.085833
Local (DST + 2) UTC (GMT + 1)
Oct 2, 2014 04:21 Oct 2, 2014 02:21
Sunrise-Sunset Local UTC
Begin Civil Twilight 07:07 05:07
Sunrise 07:41 05:41
Sunset 07:15 17:15
End Civil Twilight 07:50 17:50

Current Weather

METAR Observed VFR
EHVL 020155Z AUTO 35006KT 9999 FEW015 SCT019 15/13 Q1027 WHT Thu, Oct 2, 2014 @ 01:55 UTC
(26 Minutes ago)
Visual Flight Rules
Wind Visibility Clouds Conditions
350° at 6 knots (11 kph) 10 km or more
  • Few at 1,500' AGL
  • Scattered at 1,900' AGL
  • No significant weather
Temperatures Readings Precipitation
Current Temp 15°C (59°F)
Dewpoint 13°C (55°F)
Humidity 88%
Altimeter 30.32"Hg
Sea Level Pressure 1027mb
Field Elevation 16.4'
None Recorded

Additional weather within a 92.6km radius of EHVL

Map ICAO Location
EHMG 36.5km N (347°)
EHLW 45.6km E (099°)
EHKD 46.1km S (206°)
EHMA 61.5km E (068°)
EHQE 75.4km W (236°)

24 Hour Weather History

Loading
-

24 Hour Weather Graphs

Loading
-

CheckWX.com is intended as a tool to help pilots better visualize weather data. It is not intended as a substitute for an official weather briefing obtained from a Flight Service Station. CheckWX.com does not meet the FAA requirements for an official pre-flight weather briefing. Therefore, it's important that pilots still call and obtain an official FSS pre-flight weather briefing.